createdAt,value
2023-05-10T00:00:03.205Z,1.73
2023-05-10T00:00:15.775Z,1.70
2023-05-10T00:00:28.314Z,2.78
2023-05-10T00:00:41.275Z,3.20
2023-05-10T00:00:53.236Z,2.70
2023-05-10T00:01:05.173Z,1.67
2023-05-10T00:01:17.090Z,1.33
2023-05-10T00:01:29.092Z,1.40
2023-05-10T00:01:41.365Z,1.98
2023-05-10T00:01:53.292Z,3.05
2023-05-10T00:02:05.364Z,2.92
2023-05-10T00:02:17.304Z,2.22
2023-05-10T00:02:29.342Z,2.25
2023-05-10T00:02:41.585Z,2.67
2023-05-10T00:02:53.770Z,2.10
2023-05-10T00:03:05.892Z,2.15
2023-05-10T00:03:17.991Z,1.90
2023-05-10T00:03:30.084Z,1.77
2023-05-10T00:03:42.225Z,1.60
2023-05-10T00:03:54.441Z,1.58
2023-05-10T00:04:06.416Z,1.85
2023-05-10T00:04:18.408Z,2.17
2023-05-10T00:04:30.413Z,2.08
2023-05-10T00:04:42.328Z,2.08
2023-05-10T00:04:54.254Z,2.05
2023-05-10T00:05:06.546Z,2.17
2023-05-10T00:05:18.620Z,2.80
2023-05-10T00:05:30.550Z,3.05
2023-05-10T00:05:42.492Z,3.08
2023-05-10T00:05:54.497Z,1.80
2023-05-10T00:06:06.650Z,1.67
2023-05-10T00:06:18.803Z,2.58
2023-05-10T00:06:31.163Z,2.67
2023-05-10T00:06:43.140Z,2.40
2023-05-10T00:06:55.815Z,2.50
2023-05-10T00:07:07.822Z,2.60
2023-05-10T00:07:22.332Z,2.00
2023-05-10T00:07:34.256Z,1.67
2023-05-10T00:07:46.242Z,1.73
2023-05-10T00:07:58.206Z,2.15
2023-05-10T00:08:10.266Z,2.92
2023-05-10T00:08:22.250Z,2.50
2023-05-10T00:08:34.148Z,2.55
2023-05-10T00:08:46.328Z,1.93
2023-05-10T00:08:58.444Z,1.67
2023-05-10T00:09:10.350Z,2.17
2023-05-10T00:09:22.253Z,2.38
2023-05-10T00:09:34.206Z,2.17
2023-05-10T00:09:46.145Z,2.00
2023-05-10T00:09:58.088Z,2.03
2023-05-10T00:10:10.366Z,1.73
2023-05-10T00:10:23.603Z,2.20
2023-05-10T00:10:35.558Z,2.20
2023-05-10T00:10:47.614Z,1.50
2023-05-10T00:10:59.526Z,1.70
2023-05-10T00:11:11.533Z,1.67
2023-05-10T00:11:23.529Z,1.63
2023-05-10T00:11:35.721Z,1.92
2023-05-10T00:11:47.681Z,2.00
2023-05-10T00:11:59.881Z,2.08
2023-05-10T00:12:11.901Z,2.00
2023-05-10T00:12:23.840Z,1.90
2023-05-10T00:12:35.827Z,1.45
2023-05-10T00:12:47.877Z,1.48
2023-05-10T00:13:00.215Z,1.55
2023-05-10T00:13:13.437Z,1.95
2023-05-10T00:13:25.623Z,2.10
2023-05-10T00:13:37.736Z,3.25
2023-05-10T00:13:49.771Z,3.00
2023-05-10T00:14:01.716Z,1.60
2023-05-10T00:14:13.625Z,1.60
2023-05-10T00:14:25.598Z,1.70
2023-05-10T00:14:37.494Z,2.00
2023-05-10T00:14:49.384Z,1.85
2023-05-10T00:15:01.314Z,1.88
2023-05-10T00:15:13.216Z,2.22
2023-05-10T00:15:25.157Z,2.25
2023-05-10T00:15:37.061Z,2.70
2023-05-10T00:15:49.008Z,1.85
2023-05-10T00:16:00.996Z,1.85
2023-05-10T00:16:14.020Z,1.80
2023-05-10T00:16:26.243Z,2.67
2023-05-10T00:16:38.795Z,2.70
2023-05-10T00:16:50.960Z,1.48
2023-05-10T00:17:02.967Z,1.50
2023-05-10T00:17:16.256Z,2.90
2023-05-10T00:17:30.886Z,2.60
2023-05-10T00:17:42.857Z,2.13
2023-05-10T00:17:54.858Z,2.45
2023-05-10T00:18:06.826Z,1.88
2023-05-10T00:18:18.858Z,2.45
2023-05-10T00:18:31.575Z,2.50
2023-05-10T00:18:43.490Z,2.60
2023-05-10T00:18:55.429Z,2.13
2023-05-10T00:19:07.404Z,2.15
2023-05-10T00:19:19.633Z,1.90
2023-05-10T00:19:31.596Z,1.52
2023-05-10T00:19:43.520Z,1.70
2023-05-10T00:19:55.757Z,1.90
2023-05-10T00:20:08.128Z,2.50
2023-05-10T00:20:20.068Z,2.40
2023-05-10T00:20:32.195Z,2.13
2023-05-10T00:20:44.155Z,1.60
2023-05-10T00:20:56.055Z,1.98
2023-05-10T00:21:08.035Z,2.70
2023-05-10T00:21:20.119Z,2.83
2023-05-10T00:21:33.100Z,1.77
2023-05-10T00:21:46.114Z,1.60
2023-05-10T00:21:58.153Z,1.48
2023-05-10T00:22:10.109Z,1.67
2023-05-10T00:22:25.159Z,2.30
2023-05-10T00:22:37.168Z,2.80
2023-05-10T00:22:49.671Z,2.58
2023-05-10T00:23:01.720Z,2.40
2023-05-10T00:23:13.668Z,1.60
2023-05-10T00:23:25.710Z,1.75
2023-05-10T00:23:38.372Z,2.17
2023-05-10T00:23:50.347Z,3.60
2023-05-10T00:24:02.284Z,4.00
2023-05-10T00:24:14.243Z,3.22
2023-05-10T00:24:26.229Z,1.63
2023-05-10T00:24:38.137Z,1.65
2023-05-10T00:24:50.122Z,1.85
2023-05-10T00:25:02.418Z,1.90
2023-05-10T00:25:14.439Z,1.60
2023-05-10T00:25:27.380Z,1.60
2023-05-10T00:25:39.308Z,1.48
2023-05-10T00:25:51.351Z,1.40
2023-05-10T00:26:03.336Z,1.40
2023-05-10T00:26:15.849Z,1.73
2023-05-10T00:26:27.812Z,2.03
2023-05-10T00:26:39.711Z,2.05
2023-05-10T00:26:51.629Z,2.10
2023-05-10T00:27:04.965Z,2.00
2023-05-10T00:27:16.852Z,1.98
2023-05-10T00:27:28.728Z,1.90
2023-05-10T00:27:42.552Z,2.03
2023-05-10T00:27:56.180Z,2.03
2023-05-10T00:28:08.169Z,1.98
2023-05-10T00:28:20.128Z,2.47
2023-05-10T00:28:32.060Z,2.47
2023-05-10T00:28:46.304Z,1.60
2023-05-10T00:28:59.442Z,1.50
2023-05-10T00:29:11.444Z,1.90
2023-05-10T00:29:23.374Z,1.70
2023-05-10T00:29:35.418Z,2.30
2023-05-10T00:29:47.567Z,1.88
2023-05-10T00:30:03.142Z,1.60
2023-05-10T00:30:15.260Z,1.77
2023-05-10T00:30:27.732Z,1.83
2023-05-10T00:30:42.204Z,1.77
2023-05-10T00:30:55.597Z,2.05
2023-05-10T00:31:07.513Z,2.38
2023-05-10T00:31:19.550Z,2.15
2023-05-10T00:31:31.521Z,2.00
2023-05-10T00:31:43.553Z,2.05
2023-05-10T00:31:55.652Z,2.75
2023-05-10T00:32:07.661Z,2.97
2023-05-10T00:32:19.695Z,2.47
2023-05-10T00:32:31.717Z,1.70
2023-05-10T00:32:44.410Z,1.85
2023-05-10T00:32:56.398Z,2.40
2023-05-10T00:33:08.407Z,2.65
2023-05-10T00:33:20.414Z,2.22
2023-05-10T00:33:32.350Z,2.00
2023-05-10T00:33:44.948Z,3.13
2023-05-10T00:33:56.873Z,4.20
2023-05-10T00:34:08.801Z,4.53
2023-05-10T00:34:20.742Z,4.05
2023-05-10T00:34:32.827Z,3.97
2023-05-10T00:34:44.732Z,3.92
2023-05-10T00:34:56.690Z,2.20
2023-05-10T00:35:09.431Z,2.10
2023-05-10T00:35:22.545Z,2.00
2023-05-10T00:35:34.845Z,1.88
2023-05-10T00:35:46.779Z,1.77
2023-05-10T00:35:59.767Z,2.28
2023-05-10T00:36:11.812Z,2.40
2023-05-10T00:36:23.885Z,2.13
2023-05-10T00:36:35.780Z,1.90
2023-05-10T00:36:47.770Z,2.03
2023-05-10T00:36:59.658Z,1.80
2023-05-10T00:37:11.560Z,1.70
2023-05-10T00:37:23.456Z,1.67
2023-05-10T00:37:37.632Z,1.63
2023-05-10T00:37:50.812Z,1.60
2023-05-10T00:38:02.741Z,1.88
2023-05-10T00:38:15.261Z,2.55
2023-05-10T00:38:27.197Z,3.00
2023-05-10T00:38:39.106Z,2.75
2023-05-10T00:38:51.238Z,2.20
2023-05-10T00:39:04.508Z,2.30
2023-05-10T00:39:16.469Z,2.10
2023-05-10T00:39:29.506Z,1.90
2023-05-10T00:39:41.456Z,1.95
2023-05-10T00:39:53.455Z,1.85
2023-05-10T00:40:06.792Z,1.80
2023-05-10T00:40:18.951Z,1.90
2023-05-10T00:40:31.563Z,2.58
2023-05-10T00:40:43.744Z,2.80
2023-05-10T00:40:55.770Z,2.10
2023-05-10T00:41:07.777Z,1.80
2023-05-10T00:41:19.765Z,1.70
2023-05-10T00:41:34.696Z,1.63
2023-05-10T00:41:46.831Z,1.60
2023-05-10T00:41:58.777Z,1.55
2023-05-10T00:42:11.003Z,1.70
2023-05-10T00:42:23.192Z,1.75
2023-05-10T00:42:35.221Z,1.77
2023-05-10T00:42:47.178Z,1.70
2023-05-10T00:43:00.296Z,2.00
2023-05-10T00:43:12.271Z,2.10
2023-05-10T00:43:24.171Z,1.70
2023-05-10T00:43:36.692Z,1.50
2023-05-10T00:43:49.221Z,1.40
2023-05-10T00:44:02.906Z,1.70
2023-05-10T00:44:14.856Z,1.80
2023-05-10T00:44:26.900Z,1.85
2023-05-10T00:44:38.935Z,2.00
2023-05-10T00:44:51.029Z,2.13
2023-05-10T00:45:03.081Z,2.60
2023-05-10T00:45:15.027Z,2.40
2023-05-10T00:45:29.595Z,1.75
2023-05-10T00:45:42.354Z,1.50
2023-05-10T00:45:54.853Z,1.40
2023-05-10T00:46:07.424Z,1.60
2023-05-10T00:46:19.421Z,1.80
2023-05-10T00:46:31.805Z,1.90
2023-05-10T00:46:43.738Z,1.65
2023-05-10T00:46:55.624Z,1.50
2023-05-10T00:47:08.254Z,1.50
2023-05-10T00:47:20.257Z,1.60
2023-05-10T00:47:35.569Z,1.60
2023-05-10T00:47:47.616Z,1.60
2023-05-10T00:48:02.084Z,1.50
2023-05-10T00:48:14.289Z,1.70
2023-05-10T00:48:26.265Z,1.70
2023-05-10T00:48:38.167Z,1.80
2023-05-10T00:48:50.269Z,2.13
2023-05-10T00:49:02.474Z,2.30
2023-05-10T00:49:14.520Z,2.20
2023-05-10T00:49:26.829Z,2.28
2023-05-10T00:49:38.904Z,2.03
2023-05-10T00:49:51.298Z,1.85
2023-05-10T00:50:03.873Z,2.10
2023-05-10T00:50:16.811Z,2.08
2023-05-10T00:50:29.609Z,1.52
2023-05-10T00:50:41.587Z,1.80
2023-05-10T00:50:53.631Z,1.70
2023-05-10T00:51:05.841Z,1.52
2023-05-10T00:51:17.967Z,2.55
2023-05-10T00:51:30.043Z,3.25
2023-05-10T00:51:43.814Z,3.20
2023-05-10T00:51:55.809Z,2.25
2023-05-10T00:52:07.742Z,2.15
2023-05-10T00:52:20.128Z,1.98
2023-05-10T00:52:32.409Z,2.30
2023-05-10T00:52:44.708Z,2.30
2023-05-10T00:52:56.726Z,1.98
2023-05-10T00:53:11.266Z,1.63
2023-05-10T00:53:23.200Z,2.05
2023-05-10T00:53:35.955Z,2.20
2023-05-10T00:53:48.970Z,1.80
2023-05-10T00:54:01.241Z,1.63
2023-05-10T00:54:14.846Z,1.52
2023-05-10T00:54:26.989Z,2.08
2023-05-10T00:54:39.129Z,2.40
2023-05-10T00:54:52.993Z,2.45
2023-05-10T00:55:06.190Z,2.25
2023-05-10T00:55:19.079Z,2.05
2023-05-10T00:55:31.483Z,1.83
2023-05-10T00:55:45.807Z,1.90
2023-05-10T00:55:57.939Z,2.28
2023-05-10T00:56:09.901Z,3.97
2023-05-10T00:56:23.940Z,3.97
2023-05-10T00:56:36.449Z,4.30
2023-05-10T00:56:50.288Z,2.30
2023-05-10T00:57:02.271Z,2.40
2023-05-10T00:57:14.282Z,3.35
2023-05-10T00:57:26.520Z,4.03
2023-05-10T00:57:38.558Z,3.90
2023-05-10T00:57:50.572Z,3.45
2023-05-10T00:58:02.843Z,3.50
2023-05-10T00:58:15.266Z,3.15
2023-05-10T00:58:29.214Z,4.00
2023-05-10T00:58:41.412Z,4.63
2023-05-10T00:58:53.428Z,4.55
2023-05-10T00:59:05.339Z,2.85
2023-05-10T00:59:18.683Z,2.35
2023-05-10T00:59:30.965Z,1.92
2023-05-10T00:59:43.592Z,2.10
2023-05-10T00:59:55.606Z,2.28
2023-05-10T01:00:08.598Z,2.05
2023-05-10T01:00:20.977Z,2.25
2023-05-10T01:00:34.351Z,2.28
2023-05-10T01:00:47.482Z,3.20
2023-05-10T01:01:00.349Z,3.28
2023-05-10T01:01:12.980Z,1.77
2023-05-10T01:01:25.645Z,1.85
2023-05-10T01:01:38.274Z,2.00
2023-05-10T01:01:50.324Z,2.03
2023-05-10T01:02:03.064Z,1.92
2023-05-10T01:02:16.158Z,2.20
2023-05-10T01:02:28.512Z,2.83
2023-05-10T01:02:41.408Z,2.90
2023-05-10T01:02:55.198Z,2.20
2023-05-10T01:03:07.448Z,1.63
2023-05-10T01:03:19.624Z,1.80
2023-05-10T01:03:32.274Z,1.80
2023-05-10T01:03:44.714Z,2.40
2023-05-10T01:03:58.050Z,3.63
2023-05-10T01:04:11.934Z,3.65
2023-05-10T01:04:26.591Z,2.92
2023-05-10T01:04:38.886Z,1.90
2023-05-10T01:04:51.154Z,1.98
2023-05-10T01:05:04.545Z,2.22
2023-05-10T01:05:16.705Z,2.30
2023-05-10T01:05:28.848Z,2.30
2023-05-10T01:05:40.846Z,2.47
2023-05-10T01:05:53.096Z,2.70
2023-05-10T01:06:06.546Z,2.05
2023-05-10T01:06:18.455Z,1.90
2023-05-10T01:06:30.418Z,2.20
2023-05-10T01:06:43.244Z,2.20
2023-05-10T01:06:55.210Z,1.83
2023-05-10T01:07:07.223Z,2.28
2023-05-10T01:07:19.230Z,2.30
2023-05-10T01:07:31.231Z,2.63
2023-05-10T01:07:43.129Z,2.08
2023-05-10T01:07:55.213Z,3.20
2023-05-10T01:08:07.760Z,3.60
2023-05-10T01:08:20.234Z,3.63
2023-05-10T01:08:32.654Z,4.13
2023-05-10T01:08:44.690Z,4.32
2023-05-10T01:08:57.206Z,3.35
2023-05-10T01:09:09.407Z,3.30
2023-05-10T01:09:22.713Z,2.50
2023-05-10T01:09:34.866Z,1.60
2023-05-10T01:09:47.063Z,3.17
2023-05-10T01:09:59.181Z,3.78
2023-05-10T01:10:11.898Z,4.53
2023-05-10T01:10:23.932Z,3.22
2023-05-10T01:10:37.062Z,2.78
2023-05-10T01:10:50.167Z,2.75
2023-05-10T01:11:03.247Z,2.60
2023-05-10T01:11:15.435Z,3.38
2023-05-10T01:11:27.661Z,3.05
2023-05-10T01:11:41.314Z,3.28
2023-05-10T01:11:54.548Z,4.45
2023-05-10T01:12:08.162Z,6.32
2023-05-10T01:12:20.561Z,5.57
2023-05-10T01:12:32.909Z,3.50
2023-05-10T01:12:47.408Z,1.90
2023-05-10T01:13:00.453Z,1.85
2023-05-10T01:13:13.800Z,1.90
2023-05-10T01:13:31.600Z,1.80
2023-05-10T01:13:47.426Z,1.85
2023-05-10T01:14:01.846Z,2.90
2023-05-10T01:14:14.415Z,3.38
2023-05-10T01:14:27.528Z,2.92
2023-05-10T01:14:39.885Z,2.60
2023-05-10T01:14:52.166Z,2.75
2023-05-10T01:15:06.189Z,2.92
2023-05-10T01:15:18.974Z,2.58
2023-05-10T01:15:32.050Z,2.45
2023-05-10T01:15:44.014Z,2.00
2023-05-10T01:15:56.685Z,1.73
2023-05-10T01:16:08.871Z,2.40
2023-05-10T01:16:21.143Z,2.50
2023-05-10T01:16:37.175Z,2.63
2023-05-10T01:16:50.323Z,2.30
2023-05-10T01:17:03.053Z,2.70
2023-05-10T01:17:16.162Z,2.58
2023-05-10T01:17:28.438Z,2.05
2023-05-10T01:17:42.609Z,2.35
2023-05-10T01:17:55.130Z,2.33
2023-05-10T01:18:09.629Z,2.10
2023-05-10T01:18:22.760Z,1.70
2023-05-10T01:18:38.956Z,1.88
2023-05-10T01:18:52.268Z,1.90
2023-05-10T01:19:35.776Z,1.77
2023-05-10T01:19:47.733Z,2.35
2023-05-10T01:20:01.005Z,2.20
2023-05-10T01:20:16.608Z,1.80
2023-05-10T01:20:37.162Z,1.65
2023-05-10T01:21:05.243Z,1.80
2023-05-10T01:21:50.639Z,2.08
2023-05-10T01:22:32.128Z,1.60
2023-05-10T01:22:53.505Z,1.88
2023-05-10T01:23:11.252Z,1.63
2023-05-10T01:23:44.178Z,1.50
2023-05-10T01:24:19.219Z,1.95
2023-05-10T01:25:06.422Z,1.70
2023-05-10T01:25:20.909Z,1.60
2023-05-10T01:25:57.541Z,2.25
2023-05-10T01:26:40.287Z,1.88
2023-05-10T01:27:10.814Z,2.60
2023-05-10T01:27:39.587Z,2.00
2023-05-10T01:28:00.571Z,1.60
2023-05-10T01:28:18.729Z,1.73
2023-05-10T01:28:57.657Z,1.73
2023-05-10T01:30:09.176Z,1.92
2023-05-10T01:30:42.848Z,2.33
2023-05-10T01:32:01.280Z,1.40
2023-05-10T01:32:16.850Z,2.40
2023-05-10T01:32:47.222Z,2.10
2023-05-10T01:33:26.837Z,2.08
2023-05-10T01:33:51.459Z,1.30
2023-05-10T01:34:05.585Z,1.40
2023-05-10T01:34:24.536Z,1.40
2023-05-10T01:34:47.208Z,1.50
2023-05-10T01:35:07.256Z,1.60
2023-05-10T01:35:34.454Z,1.90
2023-05-10T01:36:02.728Z,1.77
2023-05-10T01:36:26.921Z,2.10
2023-05-10T01:36:59.489Z,2.72
2023-05-10T01:37:22.879Z,2.08
2023-05-10T01:38:01.974Z,1.63
2023-05-10T01:38:29.398Z,1.48
2023-05-10T01:38:51.364Z,1.60
2023-05-10T01:39:04.530Z,1.50
2023-05-10T01:39:29.602Z,2.08
2023-05-10T01:39:49.378Z,1.70
2023-05-10T01:40:16.207Z,1.45
2023-05-10T01:40:43.629Z,1.30
2023-05-10T01:41:08.967Z,1.35
2023-05-10T01:41:31.539Z,1.40
2023-05-10T01:42:10.570Z,1.30
2023-05-10T01:42:26.786Z,1.50
2023-05-10T01:42:47.789Z,1.50
2023-05-10T01:43:04.908Z,1.85
2023-05-10T01:43:24.879Z,2.00
2023-05-10T01:44:04.082Z,1.40
2023-05-10T01:44:30.126Z,1.52
2023-05-10T01:45:17.071Z,1.55
2023-05-10T01:45:40.005Z,1.40
2023-05-10T01:45:57.891Z,1.77
2023-05-10T01:46:16.985Z,1.70
2023-05-10T01:46:40.545Z,1.50
2023-05-10T01:46:59.274Z,1.33
2023-05-10T01:47:15.262Z,1.30
2023-05-10T01:47:36.472Z,1.35
2023-05-10T01:47:54.725Z,2.08
2023-05-10T01:48:11.927Z,3.15
2023-05-10T01:48:26.097Z,1.75
2023-05-10T01:48:47.172Z,1.33
2023-05-10T01:49:01.776Z,1.20
2023-05-10T01:49:23.156Z,1.20
2023-05-10T01:49:44.369Z,1.50
2023-05-10T01:50:01.068Z,1.42
2023-05-10T01:50:19.709Z,1.42
2023-05-10T01:50:33.170Z,1.40
2023-05-10T01:50:47.406Z,1.92
2023-05-10T01:50:59.622Z,1.73
2023-05-10T01:51:12.126Z,1.80
2023-05-10T01:51:26.685Z,2.80
2023-05-10T01:51:48.885Z,3.20
2023-05-10T01:52:16.811Z,2.03
2023-05-10T01:52:34.407Z,2.03
2023-05-10T01:52:55.406Z,1.80
2023-05-10T01:53:11.833Z,1.90
2023-05-10T01:53:24.696Z,2.13
2023-05-10T01:53:39.829Z,1.60
2023-05-10T01:53:59.585Z,1.50
2023-05-10T01:54:14.191Z,1.30
2023-05-10T01:54:27.782Z,1.40
2023-05-10T01:54:44.086Z,2.00
2023-05-10T01:55:16.971Z,2.05
2023-05-10T01:55:33.269Z,1.80
2023-05-10T01:55:54.691Z,1.80
2023-05-10T01:56:09.212Z,1.40
2023-05-10T01:56:27.251Z,1.50
2023-05-10T01:56:41.605Z,1.83
2023-05-10T01:56:59.618Z,2.00
2023-05-10T01:57:14.737Z,1.60
2023-05-10T01:57:28.701Z,1.50
2023-05-10T01:57:43.290Z,2.05
2023-05-10T01:58:12.863Z,2.05
2023-05-10T01:58:30.200Z,2.90
2023-05-10T01:58:46.592Z,2.10
2023-05-10T01:59:01.786Z,1.55
2023-05-10T01:59:17.839Z,1.60
2023-05-10T01:59:37.812Z,1.70
2023-05-10T01:59:51.913Z,1.50
2023-05-10T02:00:05.624Z,1.50
2023-05-10T02:00:20.137Z,1.60
2023-05-10T02:00:33.279Z,1.50
2023-05-10T02:00:47.162Z,1.60
2023-05-10T02:01:02.455Z,1.60
2023-05-10T02:01:15.596Z,1.60
2023-05-10T02:01:28.244Z,1.60
2023-05-10T02:01:41.492Z,3.05
2023-05-10T02:01:55.198Z,3.60
2023-05-10T02:02:08.458Z,1.85
2023-05-10T02:02:22.197Z,1.42
2023-05-10T02:02:38.199Z,1.50
2023-05-10T02:02:51.546Z,1.50
2023-05-10T02:03:07.656Z,2.45
2023-05-10T02:03:22.915Z,2.38
2023-05-10T02:03:37.555Z,1.60
2023-05-10T02:03:51.854Z,1.60
2023-05-10T02:04:04.745Z,1.60
2023-05-10T02:04:18.365Z,1.70
2023-05-10T02:04:32.149Z,1.58
2023-05-10T02:04:45.977Z,1.75
2023-05-10T02:04:59.084Z,1.80
2023-05-10T02:05:14.256Z,1.70
2023-05-10T02:05:28.271Z,1.70
2023-05-10T02:05:42.245Z,1.60
2023-05-10T02:05:55.381Z,1.60
2023-05-10T02:06:09.654Z,1.70
2023-05-10T02:06:23.473Z,1.67
2023-05-10T02:06:36.568Z,1.80
2023-05-10T02:06:52.404Z,1.70
2023-05-10T02:07:05.578Z,1.40
2023-05-10T02:07:18.550Z,1.40
2023-05-10T02:07:33.163Z,1.55
2023-05-10T02:07:46.443Z,1.50
2023-05-10T02:07:59.833Z,1.88
2023-05-10T02:08:12.948Z,3.08
2023-05-10T02:08:28.459Z,2.30
2023-05-10T02:08:42.089Z,1.42
2023-05-10T02:08:56.121Z,1.30
2023-05-10T02:09:09.937Z,1.30
2023-05-10T02:09:23.705Z,1.40
2023-05-10T02:09:37.856Z,1.40
2023-05-10T02:09:50.707Z,1.30
2023-05-10T02:10:08.193Z,1.33
2023-05-10T02:10:21.166Z,1.48
2023-05-10T02:10:35.250Z,1.50
2023-05-10T02:10:51.549Z,1.67
2023-05-10T02:11:06.489Z,1.50
2023-05-10T02:11:20.519Z,1.40
2023-05-10T02:11:33.614Z,1.38
2023-05-10T02:11:46.163Z,1.30
2023-05-10T02:12:00.846Z,1.25
2023-05-10T02:12:14.682Z,1.20
2023-05-10T02:12:28.181Z,1.33
2023-05-10T02:12:45.889Z,1.90
2023-05-10T02:13:00.756Z,1.73
2023-05-10T02:13:14.992Z,1.70
2023-05-10T02:13:28.791Z,1.65
2023-05-10T02:13:42.956Z,1.42
2023-05-10T02:13:58.156Z,1.50
2023-05-10T02:14:12.093Z,2.10
2023-05-10T02:14:25.791Z,2.10
2023-05-10T02:14:38.270Z,1.40
2023-05-10T02:14:53.656Z,1.25
2023-05-10T02:15:07.525Z,1.30
2023-05-10T02:15:23.444Z,1.30
2023-05-10T02:15:37.328Z,1.40
2023-05-10T02:15:50.647Z,1.50
2023-05-10T02:16:04.410Z,1.50
2023-05-10T02:16:18.090Z,1.40
2023-05-10T02:16:31.868Z,1.50
2023-05-10T02:16:44.566Z,2.00
2023-05-10T02:16:57.867Z,2.25
2023-05-10T02:17:13.373Z,2.40
2023-05-10T02:17:25.951Z,1.83
2023-05-10T02:17:39.694Z,1.65
2023-05-10T02:17:55.079Z,1.90
2023-05-10T02:18:08.455Z,1.70
2023-05-10T02:18:20.913Z,2.30
2023-05-10T02:18:35.006Z,2.50
2023-05-10T02:18:49.181Z,3.13
2023-05-10T02:19:03.063Z,2.95
2023-05-10T02:19:16.380Z,1.50
2023-05-10T02:19:31.095Z,1.52
2023-05-10T02:19:44.695Z,1.40
2023-05-10T02:19:58.581Z,1.42
2023-05-10T02:20:12.420Z,1.50
2023-05-10T02:20:26.419Z,1.67
2023-05-10T02:20:39.445Z,4.25
2023-05-10T02:20:54.755Z,4.25
2023-05-10T02:21:07.658Z,2.50
2023-05-10T02:21:22.541Z,2.85
2023-05-10T02:21:34.595Z,2.75
2023-05-10T02:21:47.475Z,2.72
2023-05-10T02:22:01.487Z,3.75
2023-05-10T02:22:14.255Z,4.00
2023-05-10T02:22:28.366Z,2.20
2023-05-10T02:22:43.640Z,1.60
2023-05-10T02:22:58.389Z,1.70
2023-05-10T02:23:10.903Z,1.70
2023-05-10T02:23:24.599Z,2.67
2023-05-10T02:23:37.606Z,2.92
2023-05-10T02:23:53.012Z,1.70
2023-05-10T02:24:06.337Z,1.40
2023-05-10T02:24:20.199Z,1.50
2023-05-10T02:24:34.632Z,1.40
2023-05-10T02:24:49.183Z,1.35
2023-05-10T02:25:02.208Z,1.50
2023-05-10T02:25:16.576Z,2.17
2023-05-10T02:25:30.812Z,3.00
2023-05-10T02:25:44.792Z,3.08
2023-05-10T02:25:58.833Z,2.35
2023-05-10T02:26:12.826Z,1.73
2023-05-10T02:26:26.156Z,1.60
2023-05-10T02:26:39.487Z,1.90
2023-05-10T02:26:54.771Z,1.73
2023-05-10T02:27:07.834Z,1.40
2023-05-10T02:27:20.928Z,1.95
2023-05-10T02:27:34.545Z,2.58
2023-05-10T02:27:47.904Z,2.53
2023-05-10T02:28:02.962Z,1.60
2023-05-10T02:28:16.366Z,1.60
2023-05-10T02:28:30.206Z,1.60
2023-05-10T02:28:43.959Z,1.73
2023-05-10T02:28:59.200Z,1.90
2023-05-10T02:29:13.279Z,3.25
2023-05-10T02:29:27.735Z,2.90
2023-05-10T02:29:40.269Z,3.00
2023-05-10T02:29:53.281Z,2.67
2023-05-10T02:30:07.410Z,1.90
2023-05-10T02:30:20.179Z,1.50
2023-05-10T02:30:34.784Z,1.55
2023-05-10T02:30:48.456Z,2.42
2023-05-10T02:31:00.889Z,2.33
2023-05-10T02:31:15.701Z,1.48
2023-05-10T02:31:27.916Z,1.40
2023-05-10T02:31:40.200Z,1.40
2023-05-10T02:31:56.583Z,1.40
2023-05-10T02:32:11.044Z,2.63
2023-05-10T02:32:26.916Z,2.60
2023-05-10T02:32:39.843Z,1.50
2023-05-10T02:32:53.238Z,1.40
2023-05-10T02:33:07.234Z,1.38
2023-05-10T02:33:20.761Z,1.42
2023-05-10T02:33:35.217Z,1.52
2023-05-10T02:33:47.940Z,1.90
2023-05-10T02:34:02.339Z,1.65
2023-05-10T02:34:14.609Z,2.33
2023-05-10T02:34:28.470Z,2.42
2023-05-10T02:34:41.096Z,2.22
2023-05-10T02:34:54.099Z,3.30
2023-05-10T02:35:07.107Z,3.40
2023-05-10T02:35:20.191Z,1.48
2023-05-10T02:35:34.447Z,1.40
2023-05-10T02:35:51.708Z,1.40
2023-05-10T02:36:04.926Z,1.48
2023-05-10T02:36:19.341Z,1.40
2023-05-10T02:36:32.320Z,1.45
2023-05-10T02:36:44.707Z,1.40
2023-05-10T02:36:57.636Z,1.55
2023-05-10T02:37:11.417Z,1.60
2023-05-10T02:37:24.292Z,1.52
2023-05-10T02:37:38.338Z,1.50
2023-05-10T02:37:51.541Z,1.40
2023-05-10T02:38:05.235Z,1.80
2023-05-10T02:38:20.059Z,2.80
2023-05-10T02:38:34.101Z,4.90
2023-05-10T02:38:49.219Z,3.90
2023-05-10T02:39:03.307Z,2.20
2023-05-10T02:39:16.496Z,2.20
2023-05-10T02:39:30.485Z,1.40
2023-05-10T02:39:44.842Z,1.48
2023-05-10T02:39:59.783Z,1.40
2023-05-10T02:40:14.026Z,2.00
2023-05-10T02:40:28.766Z,2.05
2023-05-10T02:40:42.330Z,1.50
2023-05-10T02:40:55.090Z,2.40
2023-05-10T02:41:09.502Z,2.40
2023-05-10T02:41:23.742Z,2.67
2023-05-10T02:41:36.408Z,1.52
2023-05-10T02:41:50.081Z,3.05
2023-05-10T02:42:03.276Z,3.90
2023-05-10T02:42:20.691Z,2.28
2023-05-10T02:42:36.868Z,1.92
2023-05-10T02:42:51.418Z,2.53
2023-05-10T02:43:05.030Z,1.92
2023-05-10T02:43:18.189Z,1.50
2023-05-10T02:43:33.187Z,1.50
2023-05-10T02:43:46.441Z,1.40
2023-05-10T02:44:02.236Z,2.28
2023-05-10T02:44:16.614Z,2.00
2023-05-10T02:44:32.060Z,1.52
2023-05-10T02:44:46.429Z,1.73
2023-05-10T02:45:02.333Z,1.50
2023-05-10T02:45:21.396Z,1.50
2023-05-10T02:45:34.416Z,1.88
2023-05-10T02:45:49.101Z,1.90
2023-05-10T02:46:01.574Z,1.88
2023-05-10T02:46:13.638Z,1.75
2023-05-10T02:46:25.840Z,1.50
2023-05-10T02:46:38.616Z,1.60
2023-05-10T02:46:50.856Z,1.60
2023-05-10T02:47:03.144Z,1.60
2023-05-10T02:47:15.207Z,1.60
2023-05-10T02:47:28.300Z,1.52
2023-05-10T02:47:40.494Z,1.60
2023-05-10T02:47:53.092Z,1.60
2023-05-10T02:48:05.747Z,2.60
2023-05-10T02:48:19.969Z,2.38
2023-05-10T02:48:32.163Z,1.98
2023-05-10T02:48:44.229Z,1.90
2023-05-10T02:48:56.248Z,2.08
2023-05-10T02:49:08.420Z,1.80
2023-05-10T02:49:20.519Z,1.73
2023-05-10T02:49:32.467Z,1.70
2023-05-10T02:49:44.529Z,1.63
2023-05-10T02:49:56.714Z,1.67
2023-05-10T02:50:09.242Z,1.70
2023-05-10T02:50:22.449Z,1.60
2023-05-10T02:50:34.924Z,1.50
2023-05-10T02:50:52.125Z,1.60
2023-05-10T02:51:07.963Z,3.35
2023-05-10T02:51:21.839Z,4.10
2023-05-10T02:51:37.291Z,2.65
2023-05-10T02:51:57.678Z,2.10
2023-05-10T02:52:10.404Z,1.60
2023-05-10T02:52:37.001Z,1.70
2023-05-10T02:52:55.038Z,1.70
2023-05-10T02:53:12.612Z,3.50
2023-05-10T02:53:35.247Z,1.85
2023-05-10T02:53:50.351Z,1.70
2023-05-10T02:54:14.112Z,1.70
2023-05-10T02:54:36.783Z,1.42
2023-05-10T02:54:53.289Z,1.60
2023-05-10T02:55:06.847Z,1.70
2023-05-10T02:55:23.370Z,2.30
2023-05-10T02:55:39.864Z,4.78
2023-05-10T02:55:53.687Z,6.60
2023-05-10T02:56:12.740Z,4.80
2023-05-10T02:56:32.645Z,1.92
2023-05-10T02:56:54.750Z,1.70
2023-05-10T02:57:08.270Z,2.13
2023-05-10T02:57:26.311Z,1.98
2023-05-10T02:57:44.089Z,1.75
2023-05-10T02:58:00.070Z,1.77
2023-05-10T02:58:12.072Z,1.73
2023-05-10T02:58:24.089Z,1.60
2023-05-10T02:58:36.429Z,1.70
2023-05-10T02:58:48.499Z,1.83
2023-05-10T02:59:00.552Z,1.90
2023-05-10T02:59:12.438Z,1.73
2023-05-10T02:59:24.423Z,1.70
2023-05-10T02:59:36.449Z,1.70
2023-05-10T02:59:48.541Z,2.10
2023-05-10T03:00:01.877Z,1.98
2023-05-10T03:00:14.069Z,1.85
2023-05-10T03:00:26.766Z,2.00
2023-05-10T03:00:38.747Z,2.22
2023-05-10T03:00:50.663Z,2.03
2023-05-10T03:01:02.626Z,1.77
2023-05-10T03:01:14.618Z,1.67
2023-05-10T03:01:26.652Z,1.73
2023-05-10T03:01:38.697Z,1.70
2023-05-10T03:01:50.731Z,1.70
2023-05-10T03:02:03.348Z,2.38
2023-05-10T03:02:16.475Z,2.90
2023-05-10T03:02:29.030Z,4.30
2023-05-10T03:02:41.520Z,3.50
2023-05-10T03:02:54.096Z,1.90
2023-05-10T03:03:06.158Z,1.80
2023-05-10T03:03:18.070Z,1.73
2023-05-10T03:03:29.999Z,1.70
2023-05-10T03:03:42.013Z,1.95
2023-05-10T03:03:54.492Z,1.92
2023-05-10T03:04:07.196Z,1.80
2023-05-10T03:04:19.515Z,1.80
2023-05-10T03:04:31.638Z,2.90
2023-05-10T03:04:43.867Z,3.20
2023-05-10T03:04:55.881Z,1.90
2023-05-10T03:05:08.285Z,2.20
2023-05-10T03:05:20.607Z,1.98
2023-05-10T03:05:32.713Z,1.92
2023-05-10T03:05:44.613Z,2.00
2023-05-10T03:05:57.460Z,2.20
2023-05-10T03:06:10.471Z,2.10
2023-05-10T03:06:22.480Z,1.88
2023-05-10T03:06:34.494Z,1.90
2023-05-10T03:06:46.561Z,2.10
2023-05-10T03:06:59.058Z,2.10
2023-05-10T03:07:11.234Z,1.95
2023-05-10T03:07:23.981Z,1.85
2023-05-10T03:07:36.597Z,1.80
2023-05-10T03:07:49.148Z,1.70
2023-05-10T03:08:04.544Z,1.92
2023-05-10T03:08:17.876Z,2.08
2023-05-10T03:08:30.466Z,2.15
2023-05-10T03:08:42.531Z,2.83
2023-05-10T03:08:54.437Z,2.50
2023-05-10T03:09:08.542Z,1.90
2023-05-10T03:09:20.823Z,1.92
2023-05-10T03:09:33.390Z,1.85
2023-05-10T03:09:46.114Z,2.35
2023-05-10T03:09:58.349Z,2.40
2023-05-10T03:10:11.003Z,2.13
2023-05-10T03:10:28.669Z,2.33
2023-05-10T03:11:00.901Z,3.53
2023-05-10T03:11:50.436Z,4.30
2023-05-10T03:12:12.540Z,1.80
2023-05-10T03:12:46.325Z,2.25
2023-05-10T03:13:13.967Z,3.50
2023-05-10T03:13:53.722Z,2.08
2023-05-10T03:14:27.139Z,3.63
2023-05-10T03:15:06.595Z,2.60
2023-05-10T03:15:46.399Z,4.80
2023-05-10T03:16:09.407Z,2.05